sensor_id;sensor_type;location;lat;lon;timestamp;temperature;humidity
21580;DHT22;10951;59.656;9.666;2022-12-24T00:01:03;-10.20;99.00
21580;DHT22;10951;59.656;9.666;2022-12-24T00:03:31;-10.30;99.10
21580;DHT22;10951;59.656;9.666;2022-12-24T00:05:58;-10.30;99.10
21580;DHT22;10951;59.656;9.666;2022-12-24T00:08:29;-10.40;99.30
21580;DHT22;10951;59.656;9.666;2022-12-24T00:10:56;-10.30;99.70
21580;DHT22;10951;59.656;9.666;2022-12-24T00:13:23;-10.40;99.50
21580;DHT22;10951;59.656;9.666;2022-12-24T00:15:50;-10.40;99.60
21580;DHT22;10951;59.656;9.666;2022-12-24T00:18:17;-10.40;99.70
21580;DHT22;10951;59.656;9.666;2022-12-24T00:20:48;-10.30;99.90
21580;DHT22;10951;59.656;9.666;2022-12-24T00:23:16;-10.30;99.90
21580;DHT22;10951;59.656;9.666;2022-12-24T00:25:43;-10.30;99.90
21580;DHT22;10951;59.656;9.666;2022-12-24T00:28:10;-10.30;99.90
21580;DHT22;10951;59.656;9.666;2022-12-24T00:30:38;-10.40;99.90
21580;DHT22;10951;59.656;9.666;2022-12-24T00:33:05;-10.40;99.90
21580;DHT22;10951;59.656;9.666;2022-12-24T00:35:33;-10.40;99.90
21580;DHT22;10951;59.656;9.666;2022-12-24T00:38:00;-10.40;99.90
21580;DHT22;10951;59.656;9.666;2022-12-24T00:40:30;-10.40;99.90
21580;DHT22;10951;59.656;9.666;2022-12-24T00:42:57;-10.40;99.90
21580;DHT22;10951;59.656;9.666;2022-12-24T00:45:24;-10.40;99.90
21580;DHT22;10951;59.656;9.666;2022-12-24T00:47:52;-10.50;99.90
21580;DHT22;10951;59.656;9.666;2022-12-24T00:50:19;-10.50;99.90
21580;DHT22;10951;59.656;9.666;2022-12-24T00:52:46;-10.40;99.90
21580;DHT22;10951;59.656;9.666;2022-12-24T00:55:14;-10.40;99.90
21580;DHT22;10951;59.656;9.666;2022-12-24T00:57:41;-10.30;99.90
21580;DHT22;10951;59.656;9.666;2022-12-24T01:00:08;-10.30;99.90
21580;DHT22;10951;59.656;9.666;2022-12-24T01:02:35;-10.30;99.90
21580;DHT22;10951;59.656;9.666;2022-12-24T01:05:02;-10.30;99.90
21580;DHT22;10951;59.656;9.666;2022-12-24T01:07:41;-10.30;99.90
21580;DHT22;10951;59.656;9.666;2022-12-24T01:10:11;-10.30;99.90
21580;DHT22;10951;59.656;9.666;2022-12-24T01:12:38;-10.20;99.90
21580;DHT22;10951;59.656;9.666;2022-12-24T01:15:06;-10.20;99.90
21580;DHT22;10951;59.656;9.666;2022-12-24T01:17:33;-10.20;99.20
21580;DHT22;10951;59.656;9.666;2022-12-24T01:20:00;-10.20;99.00
21580;DHT22;10951;59.656;9.666;2022-12-24T01:22:27;-10.30;98.70
21580;DHT22;10951;59.656;9.666;2022-12-24T01:24:54;-10.20;98.40
21580;DHT22;10951;59.656;9.666;2022-12-24T01:27:21;-10.30;98.40
21580;DHT22;10951;59.656;9.666;2022-12-24T01:29:48;-10.30;98.00
21580;DHT22;10951;59.656;9.666;2022-12-24T01:32:16;-10.40;98.20
21580;DHT22;10951;59.656;9.666;2022-12-24T01:34:42;-10.40;98.50
21580;DHT22;10951;59.656;9.666;2022-12-24T01:37:09;-10.50;98.90
21580;DHT22;10951;59.656;9.666;2022-12-24T01:39:36;-10.40;99.80
21580;DHT22;10951;59.656;9.666;2022-12-24T01:42:22;-10.40;99.00
21580;DHT22;10951;59.656;9.666;2022-12-24T01:47:56;-10.40;98.90
21580;DHT22;10951;59.656;9.666;2022-12-24T01:50:23;-10.40;99.40
21580;DHT22;10951;59.656;9.666;2022-12-24T01:52:50;-10.40;99.60
21580;DHT22;10951;59.656;9.666;2022-12-24T01:55:18;-10.50;99.40
21580;DHT22;10951;59.656;9.666;2022-12-24T01:57:50;-10.50;99.90
21580;DHT22;10951;59.656;9.666;2022-12-24T02:00:18;-10.50;99.90
21580;DHT22;10951;59.656;9.666;2022-12-24T02:02:47;-10.50;99.90
21580;DHT22;10951;59.656;9.666;2022-12-24T02:05:31;-10.50;99.90
21580;DHT22;10951;59.656;9.666;2022-12-24T02:08:02;-10.50;99.90
21580;DHT22;10951;59.656;9.666;2022-12-24T02:10:30;-10.60;99.90
21580;DHT22;10951;59.656;9.666;2022-12-24T02:12:57;-10.60;99.90
21580;DHT22;10951;59.656;9.666;2022-12-24T02:15:25;-10.60;99.90
21580;DHT22;10951;59.656;9.666;2022-12-24T02:18:34;-10.60;99.90
21580;DHT22;10951;59.656;9.666;2022-12-24T02:27:07;-10.70;99.40
21580;DHT22;10951;59.656;9.666;2022-12-24T02:29:59;-10.70;99.90
21580;DHT22;10951;59.656;9.666;2022-12-24T02:32:40;-10.60;99.90
21580;DHT22;10951;59.656;9.666;2022-12-24T02:36:10;-10.60;99.90
21580;DHT22;10951;59.656;9.666;2022-12-24T02:41:19;-10.60;99.60
21580;DHT22;10951;59.656;9.666;2022-12-24T02:43:49;-10.70;99.30
21580;DHT22;10951;59.656;9.666;2022-12-24T02:46:23;-10.70;99.00
21580;DHT22;10951;59.656;9.666;2022-12-24T02:48:51;-10.80;98.70
21580;DHT22;10951;59.656;9.666;2022-12-24T02:51:22;-10.90;98.60
21580;DHT22;10951;59.656;9.666;2022-12-24T02:53:50;-10.90;99.00
21580;DHT22;10951;59.656;9.666;2022-12-24T02:59:33;-10.90;99.40
21580;DHT22;10951;59.656;9.666;2022-12-24T03:02:28;-10.90;99.30
21580;DHT22;10951;59.656;9.666;2022-12-24T03:07:37;-10.80;98.20
21580;DHT22;10951;59.656;9.666;2022-12-24T03:10:19;-10.80;98.60
21580;DHT22;10951;59.656;9.666;2022-12-24T03:12:53;-10.90;98.70
21580;DHT22;10951;59.656;9.666;2022-12-24T03:15:23;-10.90;98.50
21580;DHT22;10951;59.656;9.666;2022-12-24T03:17:54;-10.90;97.70
21580;DHT22;10951;59.656;9.666;2022-12-24T03:20:28;-10.90;97.40
21580;DHT22;10951;59.656;9.666;2022-12-24T03:22:57;-10.90;97.20
21580;DHT22;10951;59.656;9.666;2022-12-24T03:25:25;-11.00;97.30
21580;DHT22;10951;59.656;9.666;2022-12-24T03:27:54;-11.20;97.40
21580;DHT22;10951;59.656;9.666;2022-12-24T03:30:22;-11.20;97.80
21580;DHT22;10951;59.656;9.666;2022-12-24T03:32:49;-11.30;98.40
21580;DHT22;10951;59.656;9.666;2022-12-24T03:35:16;-11.30;98.80
21580;DHT22;10951;59.656;9.666;2022-12-24T03:37:43;-11.30;99.00
21580;DHT22;10951;59.656;9.666;2022-12-24T03:40:11;-11.30;98.90
21580;DHT22;10951;59.656;9.666;2022-12-24T03:42:38;-11.40;98.90
21580;DHT22;10951;59.656;9.666;2022-12-24T03:45:05;-11.50;99.20
21580;DHT22;10951;59.656;9.666;2022-12-24T03:47:32;-11.40;99.90
21580;DHT22;10951;59.656;9.666;2022-12-24T03:49:59;-11.40;99.90
21580;DHT22;10951;59.656;9.666;2022-12-24T03:52:26;-11.30;99.90
21580;DHT22;10951;59.656;9.666;2022-12-24T03:54:53;-11.40;99.80
21580;DHT22;10951;59.656;9.666;2022-12-24T03:57:19;-11.40;99.90
21580;DHT22;10951;59.656;9.666;2022-12-24T03:59:46;-11.40;99.90
21580;DHT22;10951;59.656;9.666;2022-12-24T04:02:13;-11.40;99.90
21580;DHT22;10951;59.656;9.666;2022-12-24T04:04:40;-11.40;99.60
21580;DHT22;10951;59.656;9.666;2022-12-24T04:07:07;-11.50;99.20
21580;DHT22;10951;59.656;9.666;2022-12-24T04:09:34;-11.50;99.00
21580;DHT22;10951;59.656;9.666;2022-12-24T04:12:02;-11.50;98.80
21580;DHT22;10951;59.656;9.666;2022-12-24T04:14:29;-11.50;98.90
21580;DHT22;10951;59.656;9.666;2022-12-24T04:16:56;-11.50;98.70
21580;DHT22;10951;59.656;9.666;2022-12-24T04:19:23;-11.50;98.60
21580;DHT22;10951;59.656;9.666;2022-12-24T04:21:49;-11.50;98.30
21580;DHT22;10951;59.656;9.666;2022-12-24T04:24:16;-11.60;98.10
21580;DHT22;10951;59.656;9.666;2022-12-24T04:26:43;-11.70;98.10
21580;DHT22;10951;59.656;9.666;2022-12-24T04:29:10;-11.70;98.30
21580;DHT22;10951;59.656;9.666;2022-12-24T04:31:37;-11.80;98.50
21580;DHT22;10951;59.656;9.666;2022-12-24T04:34:04;-11.90;98.80
21580;DHT22;10951;59.656;9.666;2022-12-24T04:36:31;-11.90;98.80
21580;DHT22;10951;59.656;9.666;2022-12-24T04:38:57;-11.90;98.50
21580;DHT22;10951;59.656;9.666;2022-12-24T04:41:24;-12.00;98.30
21580;DHT22;10951;59.656;9.666;2022-12-24T04:43:53;-11.90;98.60
21580;DHT22;10951;59.656;9.666;2022-12-24T04:46:23;-11.90;99.60
21580;DHT22;10951;59.656;9.666;2022-12-24T04:48:52;-11.90;99.90
21580;DHT22;10951;59.656;9.666;2022-12-24T04:51:19;-11.80;99.90
21580;DHT22;10951;59.656;9.666;2022-12-24T04:53:46;-11.80;99.90
21580;DHT22;10951;59.656;9.666;2022-12-24T04:56:18;-11.70;99.90
21580;DHT22;10951;59.656;9.666;2022-12-24T04:58:45;-11.70;99.90
21580;DHT22;10951;59.656;9.666;2022-12-24T05:01:16;-11.70;99.90
21580;DHT22;10951;59.656;9.666;2022-12-24T05:03:44;-11.70;99.90
21580;DHT22;10951;59.656;9.666;2022-12-24T05:06:14;-11.70;99.50
21580;DHT22;10951;59.656;9.666;2022-12-24T05:08:41;-11.70;98.90
21580;DHT22;10951;59.656;9.666;2022-12-24T05:11:09;-11.80;99.00
21580;DHT22;10951;59.656;9.666;2022-12-24T05:13:43;-11.70;99.10
21580;DHT22;10951;59.656;9.666;2022-12-24T05:16:15;-11.70;98.10
21580;DHT22;10951;59.656;9.666;2022-12-24T05:18:42;-11.70;97.90
21580;DHT22;10951;59.656;9.666;2022-12-24T05:21:15;-11.70;97.90
21580;DHT22;10951;59.656;9.666;2022-12-24T05:23:42;-11.80;97.90
21580;DHT22;10951;59.656;9.666;2022-12-24T05:26:34;-11.80;97.70
21580;DHT22;10951;59.656;9.666;2022-12-24T05:29:03;-11.80;97.80
21580;DHT22;10951;59.656;9.666;2022-12-24T05:31:32;-11.80;98.90
21580;DHT22;10951;59.656;9.666;2022-12-24T05:33:59;-11.70;97.40
21580;DHT22;10951;59.656;9.666;2022-12-24T05:36:26;-11.70;97.20
21580;DHT22;10951;59.656;9.666;2022-12-24T05:38:53;-11.80;97.80
21580;DHT22;10951;59.656;9.666;2022-12-24T05:41:20;-11.80;98.60
21580;DHT22;10951;59.656;9.666;2022-12-24T05:43:48;-11.80;98.90
21580;DHT22;10951;59.656;9.666;2022-12-24T05:46:16;-11.80;99.30
21580;DHT22;10951;59.656;9.666;2022-12-24T05:48:45;-11.80;99.50
21580;DHT22;10951;59.656;9.666;2022-12-24T05:51:14;-11.80;98.10
21580;DHT22;10951;59.656;9.666;2022-12-24T05:53:41;-11.80;97.50
21580;DHT22;10951;59.656;9.666;2022-12-24T05:56:10;-11.90;97.40
21580;DHT22;10951;59.656;9.666;2022-12-24T05:58:38;-11.90;97.10
21580;DHT22;10951;59.656;9.666;2022-12-24T06:01:06;-12.00;97.00
21580;DHT22;10951;59.656;9.666;2022-12-24T06:03:34;-12.00;96.90
21580;DHT22;10951;59.656;9.666;2022-12-24T06:06:04;-12.10;97.00
21580;DHT22;10951;59.656;9.666;2022-12-24T06:08:33;-12.20;97.30
21580;DHT22;10951;59.656;9.666;2022-12-24T06:11:02;-12.20;97.30
21580;DHT22;10951;59.656;9.666;2022-12-24T06:13:29;-12.20;97.10
21580;DHT22;10951;59.656;9.666;2022-12-24T06:15:57;-12.30;97.00
21580;DHT22;10951;59.656;9.666;2022-12-24T06:18:25;-12.40;97.20
21580;DHT22;10951;59.656;9.666;2022-12-24T06:20:53;-12.40;97.40
21580;DHT22;10951;59.656;9.666;2022-12-24T06:23:21;-12.60;97.30
21580;DHT22;10951;59.656;9.666;2022-12-24T06:25:48;-12.60;97.60
21580;DHT22;10951;59.656;9.666;2022-12-24T06:28:15;-12.70;97.60
21580;DHT22;10951;59.656;9.666;2022-12-24T06:30:49;-12.70;97.80
21580;DHT22;10951;59.656;9.666;2022-12-24T06:33:16;-12.80;97.90
21580;DHT22;10951;59.656;9.666;2022-12-24T06:35:45;-12.80;98.50
21580;DHT22;10951;59.656;9.666;2022-12-24T06:38:13;-12.70;99.90
21580;DHT22;10951;59.656;9.666;2022-12-24T06:40:41;-12.60;99.90
21580;DHT22;10951;59.656;9.666;2022-12-24T06:43:09;-12.50;99.90
21580;DHT22;10951;59.656;9.666;2022-12-24T06:45:36;-12.40;99.90
21580;DHT22;10951;59.656;9.666;2022-12-24T06:48:03;-12.40;99.90
21580;DHT22;10951;59.656;9.666;2022-12-24T06:50:32;-12.30;99.80
21580;DHT22;10951;59.656;9.666;2022-12-24T06:52:59;-12.30;99.80
21580;DHT22;10951;59.656;9.666;2022-12-24T06:55:26;-12.30;99.70
21580;DHT22;10951;59.656;9.666;2022-12-24T06:57:53;-12.30;99.50
21580;DHT22;10951;59.656;9.666;2022-12-24T07:00:20;-12.30;99.90
21580;DHT22;10951;59.656;9.666;2022-12-24T07:02:50;-12.30;99.90
21580;DHT22;10951;59.656;9.666;2022-12-24T07:05:17;-12.30;99.90
21580;DHT22;10951;59.656;9.666;2022-12-24T07:07:44;-12.30;99.90
21580;DHT22;10951;59.656;9.666;2022-12-24T07:10:15;-12.20;99.10
21580;DHT22;10951;59.656;9.666;2022-12-24T07:12:42;-12.20;98.50
21580;DHT22;10951;59.656;9.666;2022-12-24T07:15:10;-12.20;98.70
21580;DHT22;10951;59.656;9.666;2022-12-24T07:17:38;-12.20;98.70
21580;DHT22;10951;59.656;9.666;2022-12-24T07:20:07;-12.20;98.80
21580;DHT22;10951;59.656;9.666;2022-12-24T07:22:34;-12.30;98.30
21580;DHT22;10951;59.656;9.666;2022-12-24T07:25:01;-12.30;98.10
21580;DHT22;10951;59.656;9.666;2022-12-24T07:27:29;-12.40;98.40
21580;DHT22;10951;59.656;9.666;2022-12-24T07:29:56;-12.40;98.80
21580;DHT22;10951;59.656;9.666;2022-12-24T07:32:22;-12.40;99.30
21580;DHT22;10951;59.656;9.666;2022-12-24T07:34:49;-12.30;99.90
21580;DHT22;10951;59.656;9.666;2022-12-24T07:37:16;-12.20;99.90
21580;DHT22;10951;59.656;9.666;2022-12-24T07:39:44;-12.20;99.00
21580;DHT22;10951;59.656;9.666;2022-12-24T07:42:11;-12.20;98.60
21580;DHT22;10951;59.656;9.666;2022-12-24T07:44:38;-12.20;98.90
21580;DHT22;10951;59.656;9.666;2022-12-24T07:47:05;-12.20;98.50
21580;DHT22;10951;59.656;9.666;2022-12-24T07:49:32;-12.10;98.80
21580;DHT22;10951;59.656;9.666;2022-12-24T07:52:00;-12.20;98.50
21580;DHT22;10951;59.656;9.666;2022-12-24T07:54:27;-12.20;98.60
21580;DHT22;10951;59.656;9.666;2022-12-24T07:56:54;-12.20;98.70
21580;DHT22;10951;59.656;9.666;2022-12-24T07:59:21;-12.10;98.20
21580;DHT22;10951;59.656;9.666;2022-12-24T08:01:47;-12.20;98.00
21580;DHT22;10951;59.656;9.666;2022-12-24T08:04:15;-12.20;98.40
21580;DHT22;10951;59.656;9.666;2022-12-24T08:06:41;-12.20;98.30
21580;DHT22;10951;59.656;9.666;2022-12-24T08:09:08;-12.20;98.10
21580;DHT22;10951;59.656;9.666;2022-12-24T08:11:35;-12.20;98.10
21580;DHT22;10951;59.656;9.666;2022-12-24T08:14:02;-12.20;98.00
21580;DHT22;10951;59.656;9.666;2022-12-24T08:16:28;-12.20;98.00
21580;DHT22;10951;59.656;9.666;2022-12-24T08:18:56;-12.30;98.30
21580;DHT22;10951;59.656;9.666;2022-12-24T08:21:22;-12.30;99.80
21580;DHT22;10951;59.656;9.666;2022-12-24T08:23:49;-12.20;99.90
21580;DHT22;10951;59.656;9.666;2022-12-24T08:26:16;-12.20;98.80
21580;DHT22;10951;59.656;9.666;2022-12-24T08:28:43;-12.20;97.50
21580;DHT22;10951;59.656;9.666;2022-12-24T08:31:10;-12.20;97.10
21580;DHT22;10951;59.656;9.666;2022-12-24T08:33:37;-12.30;96.90
21580;DHT22;10951;59.656;9.666;2022-12-24T08:36:04;-12.40;97.00
21580;DHT22;10951;59.656;9.666;2022-12-24T08:38:31;-12.40;97.30
21580;DHT22;10951;59.656;9.666;2022-12-24T08:40:58;-12.50;97.50
21580;DHT22;10951;59.656;9.666;2022-12-24T08:43:25;-12.50;97.40
21580;DHT22;10951;59.656;9.666;2022-12-24T08:45:52;-12.60;98.10
21580;DHT22;10951;59.656;9.666;2022-12-24T08:48:19;-12.50;97.60
21580;DHT22;10951;59.656;9.666;2022-12-24T08:50:46;-12.50;97.00
21580;DHT22;10951;59.656;9.666;2022-12-24T08:53:13;-12.60;96.80
21580;DHT22;10951;59.656;9.666;2022-12-24T08:55:40;-12.70;96.90
21580;DHT22;10951;59.656;9.666;2022-12-24T08:58:07;-12.70;98.10
21580;DHT22;10951;59.656;9.666;2022-12-24T09:00:35;-12.70;98.20
21580;DHT22;10951;59.656;9.666;2022-12-24T09:03:02;-12.70;97.70
21580;DHT22;10951;59.656;9.666;2022-12-24T09:05:29;-12.80;97.30
21580;DHT22;10951;59.656;9.666;2022-12-24T09:07:55;-12.70;97.40
21580;DHT22;10951;59.656;9.666;2022-12-24T09:10:23;-12.70;97.50
21580;DHT22;10951;59.656;9.666;2022-12-24T09:12:50;-12.70;97.80
21580;DHT22;10951;59.656;9.666;2022-12-24T09:15:16;-12.60;98.10
21580;DHT22;10951;59.656;9.666;2022-12-24T09:17:44;-12.50;99.90
21580;DHT22;10951;59.656;9.666;2022-12-24T09:20:11;-12.40;98.80
21580;DHT22;10951;59.656;9.666;2022-12-24T09:22:38;-12.30;99.40
21580;DHT22;10951;59.656;9.666;2022-12-24T09:25:05;-12.20;98.90
21580;DHT22;10951;59.656;9.666;2022-12-24T09:27:33;-12.10;98.20
21580;DHT22;10951;59.656;9.666;2022-12-24T09:29:59;-12.00;97.20
21580;DHT22;10951;59.656;9.666;2022-12-24T09:32:26;-12.00;96.30
21580;DHT22;10951;59.656;9.666;2022-12-24T09:34:53;-12.00;95.90
21580;DHT22;10951;59.656;9.666;2022-12-24T09:37:20;-12.10;95.80
21580;DHT22;10951;59.656;9.666;2022-12-24T09:39:47;-12.10;96.20
21580;DHT22;10951;59.656;9.666;2022-12-24T09:42:27;-12.10;96.50
21580;DHT22;10951;59.656;9.666;2022-12-24T09:45:13;-12.20;96.70
21580;DHT22;10951;59.656;9.666;2022-12-24T09:47:54;-12.20;97.10
21580;DHT22;10951;59.656;9.666;2022-12-24T09:50:40;-12.20;97.30
21580;DHT22;10951;59.656;9.666;2022-12-24T09:56:33;-12.30;97.40
21580;DHT22;10951;59.656;9.666;2022-12-24T09:59:03;-12.30;97.40
21580;DHT22;10951;59.656;9.666;2022-12-24T10:01:32;-12.30;97.70
21580;DHT22;10951;59.656;9.666;2022-12-24T10:04:03;-12.30;98.10
21580;DHT22;10951;59.656;9.666;2022-12-24T10:15:25;-12.10;98.30
21580;DHT22;10951;59.656;9.666;2022-12-24T10:20:59;-11.90;97.30
21580;DHT22;10951;59.656;9.666;2022-12-24T10:23:37;-11.80;97.50
21580;DHT22;10951;59.656;9.666;2022-12-24T10:28:43;-11.60;98.10
21580;DHT22;10951;59.656;9.666;2022-12-24T10:31:12;-11.50;98.40
21580;DHT22;10951;59.656;9.666;2022-12-24T10:33:49;-11.40;98.40
21580;DHT22;10951;59.656;9.666;2022-12-24T10:36:27;-11.30;98.20
21580;DHT22;10951;59.656;9.666;2022-12-24T10:38:54;-11.20;96.70
21580;DHT22;10951;59.656;9.666;2022-12-24T10:41:23;-11.20;95.90
21580;DHT22;10951;59.656;9.666;2022-12-24T10:43:51;-11.30;96.30
21580;DHT22;10951;59.656;9.666;2022-12-24T10:46:34;-11.30;96.60
21580;DHT22;10951;59.656;9.666;2022-12-24T10:49:07;-11.30;97.30
21580;DHT22;10951;59.656;9.666;2022-12-24T10:52:26;-11.20;98.00
21580;DHT22;10951;59.656;9.666;2022-12-24T10:57:46;-10.80;97.60
21580;DHT22;10951;59.656;9.666;2022-12-24T11:00:23;-10.70;96.20
21580;DHT22;10951;59.656;9.666;2022-12-24T11:05:39;-10.70;94.90
21580;DHT22;10951;59.656;9.666;2022-12-24T11:10:44;-10.80;94.90
21580;DHT22;10951;59.656;9.666;2022-12-24T11:13:31;-10.90;95.20
21580;DHT22;10951;59.656;9.666;2022-12-24T11:16:20;-11.00;95.40
21580;DHT22;10951;59.656;9.666;2022-12-24T11:18:51;-11.00;95.80
21580;DHT22;10951;59.656;9.666;2022-12-24T11:21:27;-10.90;96.10
21580;DHT22;10951;59.656;9.666;2022-12-24T11:26:35;-10.80;95.70
21580;DHT22;10951;59.656;9.666;2022-12-24T11:29:22;-10.70;95.40
21580;DHT22;10951;59.656;9.666;2022-12-24T11:31:50;-10.90;95.30
21580;DHT22;10951;59.656;9.666;2022-12-24T11:34:27;-10.90;95.50
21580;DHT22;10951;59.656;9.666;2022-12-24T11:39:46;-11.10;96.30
21580;DHT22;10951;59.656;9.666;2022-12-24T11:42:33;-11.10;96.10
21580;DHT22;10951;59.656;9.666;2022-12-24T11:45:26;-11.10;96.20
21580;DHT22;10951;59.656;9.666;2022-12-24T11:47:53;-11.20;96.20
21580;DHT22;10951;59.656;9.666;2022-12-24T11:50:27;-11.20;96.40
21580;DHT22;10951;59.656;9.666;2022-12-24T11:58:26;-11.00;97.20
21580;DHT22;10951;59.656;9.666;2022-12-24T12:03:47;-10.90;96.50
21580;DHT22;10951;59.656;9.666;2022-12-24T12:06:28;-10.90;96.10
21580;DHT22;10951;59.656;9.666;2022-12-24T12:09:02;-10.90;96.00
21580;DHT22;10951;59.656;9.666;2022-12-24T12:11:31;-11.00;96.10
21580;DHT22;10951;59.656;9.666;2022-12-24T12:14:00;-11.00;96.20
21580;DHT22;10951;59.656;9.666;2022-12-24T12:16:46;-11.10;95.90
21580;DHT22;10951;59.656;9.666;2022-12-24T12:19:48;-11.10;96.10
21580;DHT22;10951;59.656;9.666;2022-12-24T12:24:57;-11.20;96.30
21580;DHT22;10951;59.656;9.666;2022-12-24T12:27:36;-11.20;96.30
21580;DHT22;10951;59.656;9.666;2022-12-24T12:30:13;-11.30;96.40
21580;DHT22;10951;59.656;9.666;2022-12-24T12:32:52;-11.30;96.70
21580;DHT22;10951;59.656;9.666;2022-12-24T12:35:38;-11.30;96.90
21580;DHT22;10951;59.656;9.666;2022-12-24T12:38:19;-11.30;97.10
21580;DHT22;10951;59.656;9.666;2022-12-24T12:41:22;-11.20;96.80
21580;DHT22;10951;59.656;9.666;2022-12-24T12:49:44;-11.10;96.10
21580;DHT22;10951;59.656;9.666;2022-12-24T12:55:44;-11.30;96.10
21580;DHT22;10951;59.656;9.666;2022-12-24T12:58:35;-11.40;96.40
21580;DHT22;10951;59.656;9.666;2022-12-24T13:20:46;-11.40;97.10
21580;DHT22;10951;59.656;9.666;2022-12-24T13:23:17;-11.40;96.90
21580;DHT22;10951;59.656;9.666;2022-12-24T13:25:52;-11.40;96.90
21580;DHT22;10951;59.656;9.666;2022-12-24T13:36:08;-11.50;97.40
21580;DHT22;10951;59.656;9.666;2022-12-24T13:47:13;-11.50;97.30
21580;DHT22;10951;59.656;9.666;2022-12-24T13:49:43;-11.50;97.30
21580;DHT22;10951;59.656;9.666;2022-12-24T13:57:40;-11.60;97.30
21580;DHT22;10951;59.656;9.666;2022-12-24T14:00:30;-11.60;97.80
21580;DHT22;10951;59.656;9.666;2022-12-24T14:11:14;-11.60;96.90
21580;DHT22;10951;59.656;9.666;2022-12-24T14:16:14;-11.80;97.10
21580;DHT22;10951;59.656;9.666;2022-12-24T14:18:47;-11.90;97.60
21580;DHT22;10951;59.656;9.666;2022-12-24T14:21:24;-11.90;97.90
21580;DHT22;10951;59.656;9.666;2022-12-24T14:23:58;-11.80;97.50
21580;DHT22;10951;59.656;9.666;2022-12-24T14:26:31;-11.80;97.30
21580;DHT22;10951;59.656;9.666;2022-12-24T14:29:16;-11.80;97.30
21580;DHT22;10951;59.656;9.666;2022-12-24T14:31:56;-11.90;97.20
21580;DHT22;10951;59.656;9.666;2022-12-24T14:34:23;-11.90;97.30
21580;DHT22;10951;59.656;9.666;2022-12-24T14:36:53;-12.00;97.40
21580;DHT22;10951;59.656;9.666;2022-12-24T14:39:24;-12.00;97.60
21580;DHT22;10951;59.656;9.666;2022-12-24T14:45:12;-12.10;97.60
21580;DHT22;10951;59.656;9.666;2022-12-24T14:53:59;-12.20;97.90
21580;DHT22;10951;59.656;9.666;2022-12-24T14:56:28;-12.20;97.80
21580;DHT22;10951;59.656;9.666;2022-12-24T14:58:55;-12.10;98.20
21580;DHT22;10951;59.656;9.666;2022-12-24T15:01:26;-12.10;98.30
21580;DHT22;10951;59.656;9.666;2022-12-24T15:09:20;-12.10;97.90
21580;DHT22;10951;59.656;9.666;2022-12-24T15:11:50;-12.10;97.80
21580;DHT22;10951;59.656;9.666;2022-12-24T15:14:19;-12.10;97.90
21580;DHT22;10951;59.656;9.666;2022-12-24T15:16:56;-12.20;98.00
21580;DHT22;10951;59.656;9.666;2022-12-24T15:19:27;-12.30;98.00
21580;DHT22;10951;59.656;9.666;2022-12-24T15:21:57;-12.20;98.20
21580;DHT22;10951;59.656;9.666;2022-12-24T15:24:30;-12.30;98.20
21580;DHT22;10951;59.656;9.666;2022-12-24T15:26:59;-12.30;98.20
21580;DHT22;10951;59.656;9.666;2022-12-24T15:29:29;-12.20;98.20
21580;DHT22;10951;59.656;9.666;2022-12-24T15:32:01;-12.20;98.40
21580;DHT22;10951;59.656;9.666;2022-12-24T15:37:13;-12.30;98.40
21580;DHT22;10951;59.656;9.666;2022-12-24T15:39:42;-12.30;98.50
21580;DHT22;10951;59.656;9.666;2022-12-24T15:42:16;-12.30;98.50
21580;DHT22;10951;59.656;9.666;2022-12-24T15:47:25;-12.30;98.30
21580;DHT22;10951;59.656;9.666;2022-12-24T15:49:53;-12.30;98.30
21580;DHT22;10951;59.656;9.666;2022-12-24T15:52:22;-12.30;98.60
21580;DHT22;10951;59.656;9.666;2022-12-24T15:54:51;-12.30;99.40
21580;DHT22;10951;59.656;9.666;2022-12-24T15:57:29;-12.30;99.90
21580;DHT22;10951;59.656;9.666;2022-12-24T15:59:59;-12.30;99.80
21580;DHT22;10951;59.656;9.666;2022-12-24T16:05:31;-12.20;98.60
21580;DHT22;10951;59.656;9.666;2022-12-24T16:10:44;-12.30;97.60
21580;DHT22;10951;59.656;9.666;2022-12-24T16:13:28;-12.30;97.70
21580;DHT22;10951;59.656;9.666;2022-12-24T16:16:01;-12.40;97.40
21580;DHT22;10951;59.656;9.666;2022-12-24T16:18:52;-12.50;97.30
21580;DHT22;10951;59.656;9.666;2022-12-24T16:21:27;-12.50;97.30
21580;DHT22;10951;59.656;9.666;2022-12-24T16:23:56;-12.50;97.50
21580;DHT22;10951;59.656;9.666;2022-12-24T16:26:23;-12.50;97.60
21580;DHT22;10951;59.656;9.666;2022-12-24T16:28:50;-12.50;97.70
21580;DHT22;10951;59.656;9.666;2022-12-24T16:31:27;-12.50;97.80
21580;DHT22;10951;59.656;9.666;2022-12-24T16:33:57;-12.60;97.80
21580;DHT22;10951;59.656;9.666;2022-12-24T16:36:25;-12.60;97.60
21580;DHT22;10951;59.656;9.666;2022-12-24T16:38:51;-12.70;97.60
21580;DHT22;10951;59.656;9.666;2022-12-24T16:41:58;-12.60;97.50
21580;DHT22;10951;59.656;9.666;2022-12-24T16:44:45;-12.60;97.30
21580;DHT22;10951;59.656;9.666;2022-12-24T16:47:24;-12.60;97.10
21580;DHT22;10951;59.656;9.666;2022-12-24T16:49:51;-12.60;97.00
21580;DHT22;10951;59.656;9.666;2022-12-24T16:52:21;-12.70;97.00
21580;DHT22;10951;59.656;9.666;2022-12-24T16:54:51;-12.70;97.10
21580;DHT22;10951;59.656;9.666;2022-12-24T16:57:18;-12.70;97.10
21580;DHT22;10951;59.656;9.666;2022-12-24T16:59:45;-12.70;96.70
21580;DHT22;10951;59.656;9.666;2022-12-24T17:02:14;-12.80;96.50
21580;DHT22;10951;59.656;9.666;2022-12-24T17:04:42;-12.90;96.40
21580;DHT22;10951;59.656;9.666;2022-12-24T17:07:16;-13.00;96.40
21580;DHT22;10951;59.656;9.666;2022-12-24T17:09:43;-13.10;96.50
21580;DHT22;10951;59.656;9.666;2022-12-24T17:12:10;-13.20;96.80
21580;DHT22;10951;59.656;9.666;2022-12-24T17:14:38;-13.30;97.20
21580;DHT22;10951;59.656;9.666;2022-12-24T17:17:05;-13.30;97.70
21580;DHT22;10951;59.656;9.666;2022-12-24T17:19:32;-13.20;98.20
21580;DHT22;10951;59.656;9.666;2022-12-24T17:21:59;-13.20;98.80
21580;DHT22;10951;59.656;9.666;2022-12-24T17:24:26;-13.20;98.50
21580;DHT22;10951;59.656;9.666;2022-12-24T17:26:52;-13.20;98.50
21580;DHT22;10951;59.656;9.666;2022-12-24T17:29:19;-13.20;98.80
21580;DHT22;10951;59.656;9.666;2022-12-24T17:31:46;-13.20;99.00
21580;DHT22;10951;59.656;9.666;2022-12-24T17:34:13;-13.10;98.50
21580;DHT22;10951;59.656;9.666;2022-12-24T17:36:39;-13.10;98.40
21580;DHT22;10951;59.656;9.666;2022-12-24T17:39:06;-13.00;97.80
21580;DHT22;10951;59.656;9.666;2022-12-24T17:41:33;-13.00;97.00
21580;DHT22;10951;59.656;9.666;2022-12-24T17:44:00;-13.00;96.80
21580;DHT22;10951;59.656;9.666;2022-12-24T17:46:27;-13.00;97.10
21580;DHT22;10951;59.656;9.666;2022-12-24T17:48:54;-13.00;97.60
21580;DHT22;10951;59.656;9.666;2022-12-24T17:51:22;-12.90;96.80
21580;DHT22;10951;59.656;9.666;2022-12-24T17:53:49;-12.90;96.40
21580;DHT22;10951;59.656;9.666;2022-12-24T17:56:16;-12.90;95.90
21580;DHT22;10951;59.656;9.666;2022-12-24T17:58:44;-13.00;95.70
21580;DHT22;10951;59.656;9.666;2022-12-24T18:01:15;-13.20;96.10
21580;DHT22;10951;59.656;9.666;2022-12-24T18:03:43;-13.20;96.60